createdAt,value
2023-02-06T00:01:45.619Z,1.36
2023-02-06T00:04:14.738Z,1.33
2023-02-06T00:06:44.705Z,1.28
2023-02-06T00:09:12.985Z,1.27
2023-02-06T00:11:41.282Z,1.25
2023-02-06T00:14:09.539Z,1.21
2023-02-06T00:16:37.921Z,1.19
2023-02-06T00:19:06.433Z,1.15
2023-02-06T00:21:34.782Z,1.15
2023-02-06T00:24:05.196Z,1.12
2023-02-06T00:26:33.572Z,1.08
2023-02-06T00:29:01.778Z,1.07
2023-02-06T00:31:30.561Z,1.04
2023-02-06T00:33:58.925Z,1.03
2023-02-06T00:36:27.302Z,1.02
2023-02-06T00:38:55.580Z,1.00
2023-02-06T00:41:25.213Z,0.98
2023-02-06T00:43:53.463Z,0.99
2023-02-06T00:46:22.003Z,0.97
2023-02-06T00:48:50.255Z,0.94
2023-02-06T00:51:18.468Z,0.94
2023-02-06T00:53:46.722Z,0.92
2023-02-06T00:56:14.945Z,0.88
2023-02-06T00:58:44.623Z,0.87
2023-02-06T01:01:12.900Z,0.85
2023-02-06T01:03:41.743Z,0.79
2023-02-06T01:06:10.140Z,0.81
2023-02-06T01:08:38.387Z,0.78
2023-02-06T01:11:12.169Z,0.75
2023-02-06T01:13:40.654Z,0.73
2023-02-06T01:16:11.412Z,0.71
2023-02-06T01:18:40.177Z,0.64
2023-02-06T01:21:10.626Z,0.66
2023-02-06T01:23:40.450Z,0.64
2023-02-06T01:26:10.703Z,0.61
2023-02-06T01:28:39.978Z,0.58
2023-02-06T01:31:13.895Z,0.56
2023-02-06T01:33:42.455Z,0.54
2023-02-06T01:36:11.420Z,0.52
2023-02-06T01:38:40.519Z,0.51
2023-02-06T01:41:09.665Z,0.49
2023-02-06T01:43:41.222Z,0.48
2023-02-06T01:46:10.840Z,0.46
2023-02-06T01:48:44.819Z,0.44
2023-02-06T01:51:18.829Z,0.41
2023-02-06T01:53:51.849Z,0.39
2023-02-06T01:56:21.809Z,0.34
2023-02-06T01:58:55.192Z,0.32
2023-02-06T02:01:24.685Z,0.28
2023-02-06T02:03:59.462Z,0.25
2023-02-06T02:06:28.827Z,0.23
2023-02-06T02:08:58.677Z,0.23
2023-02-06T02:11:32.409Z,0.23
2023-02-06T02:14:02.094Z,0.23
2023-02-06T02:16:43.671Z,0.22
2023-02-06T02:19:49.007Z,0.19
2023-02-06T02:22:57.135Z,0.15
2023-02-06T02:25:53.373Z,0.12
2023-02-06T02:29:18.650Z,0.06
2023-02-06T02:32:35.363Z,0.00
2023-02-06T02:35:14.710Z,-0.01
2023-02-06T02:37:56.568Z,-0.02
2023-02-06T02:40:36.345Z,-0.05
2023-02-06T02:43:16.910Z,-0.03
2023-02-06T02:45:50.478Z,-0.05
2023-02-06T02:48:26.506Z,-0.04
2023-02-06T02:50:57.750Z,-0.05
2023-02-06T02:53:26.981Z,-0.06
2023-02-06T02:55:55.612Z,-0.07
2023-02-06T02:58:28.810Z,-0.08
2023-02-06T03:01:01.167Z,-0.09
2023-02-06T03:03:32.808Z,-0.10
2023-02-06T03:06:32.456Z,-0.13
2023-02-06T03:09:09.067Z,-0.12
2023-02-06T03:11:43.696Z,-0.16
2023-02-06T03:14:18.295Z,-0.17
2023-02-06T03:16:51.988Z,-0.19
2023-02-06T03:19:25.662Z,-0.21
2023-02-06T03:21:55.289Z,-0.22
2023-02-06T03:24:27.477Z,-0.23
2023-02-06T03:27:00.692Z,-0.26
2023-02-06T03:29:31.312Z,-0.26
2023-02-06T03:32:05.466Z,-0.27
2023-02-06T03:34:41.754Z,-0.30
2023-02-06T03:37:11.769Z,-0.31
2023-02-06T03:39:40.570Z,-0.33
2023-02-06T03:42:13.022Z,-0.37
2023-02-06T03:44:45.345Z,-0.41
2023-02-06T03:47:17.561Z,-0.44
2023-02-06T03:49:48.461Z,-0.46
2023-02-06T03:52:22.627Z,-0.48
2023-02-06T03:54:56.540Z,-0.49
2023-02-06T03:57:26.361Z,-0.53
2023-02-06T03:59:54.672Z,-0.53
2023-02-06T04:02:25.843Z,-0.53
2023-02-06T04:04:54.521Z,-0.55
2023-02-06T04:07:28.433Z,-0.55
2023-02-06T04:09:56.951Z,-0.55
2023-02-06T04:12:25.860Z,-0.55
2023-02-06T04:14:54.471Z,-0.55
2023-02-06T04:17:40.730Z,-0.54
2023-02-06T04:20:12.556Z,-0.56
2023-02-06T04:22:42.879Z,-0.56
2023-02-06T04:25:11.107Z,-0.56
2023-02-06T04:27:39.482Z,-0.54
2023-02-06T04:30:09.730Z,-0.53
2023-02-06T04:32:38.036Z,-0.54
2023-02-06T04:35:07.062Z,-0.53
2023-02-06T04:37:35.360Z,-0.52
2023-02-06T04:40:05.509Z,-0.53
2023-02-06T04:42:33.836Z,-0.54
2023-02-06T04:45:02.174Z,-0.56
2023-02-06T04:47:30.364Z,-0.55
2023-02-06T04:49:58.634Z,-0.57
2023-02-06T04:52:26.900Z,-0.58
2023-02-06T04:54:55.185Z,-0.59
2023-02-06T04:57:25.498Z,-0.59
2023-02-06T04:59:53.812Z,-0.60
2023-02-06T05:02:22.112Z,-0.63
2023-02-06T05:04:50.375Z,-0.64
2023-02-06T05:07:18.634Z,-0.65
2023-02-06T05:09:47.235Z,-0.67
2023-02-06T05:12:15.541Z,-0.68
2023-02-06T05:14:45.186Z,-0.70
2023-02-06T05:17:13.444Z,-0.69
2023-02-06T05:19:41.698Z,-0.71
2023-02-06T05:22:10.142Z,-0.72
2023-02-06T05:24:38.412Z,-0.74
2023-02-06T05:27:06.649Z,-0.76
2023-02-06T05:29:34.856Z,-0.77
2023-02-06T05:32:04.583Z,-0.79
2023-02-06T05:34:32.856Z,-0.80
2023-02-06T05:37:01.155Z,-0.81
2023-02-06T05:39:29.828Z,-0.83
2023-02-06T05:41:58.107Z,-0.84
2023-02-06T05:44:26.404Z,-0.87
2023-02-06T05:46:54.979Z,-0.89
2023-02-06T05:49:24.618Z,-0.89
2023-02-06T05:51:52.964Z,-0.90
2023-02-06T05:54:21.242Z,-0.92
2023-02-06T05:56:49.529Z,-0.92
2023-02-06T05:59:17.769Z,-0.94
2023-02-06T06:01:46.250Z,-0.96
2023-02-06T06:04:14.572Z,-0.96
2023-02-06T06:06:44.204Z,-0.98
2023-02-06T06:09:12.714Z,-0.97
2023-02-06T06:11:40.990Z,-0.97
2023-02-06T06:14:09.672Z,-0.98
2023-02-06T06:16:37.879Z,-0.99
2023-02-06T06:19:06.123Z,-1.01
2023-02-06T06:21:34.958Z,-1.04
2023-02-06T06:24:05.143Z,-1.04
2023-02-06T06:26:33.652Z,-1.05
2023-02-06T06:29:01.918Z,-1.05
2023-02-06T06:31:30.314Z,-1.06
2023-02-06T06:33:58.587Z,-1.08
2023-02-06T06:36:26.820Z,-1.08
2023-02-06T06:38:55.164Z,-1.10
2023-02-06T06:41:24.776Z,-1.10
2023-02-06T06:43:56.067Z,-1.13
2023-02-06T06:46:24.379Z,-1.13
2023-02-06T06:48:52.804Z,-1.14
2023-02-06T06:51:21.205Z,-1.16
2023-02-06T06:53:49.475Z,-1.17
2023-02-06T06:56:17.758Z,-1.21
2023-02-06T06:58:47.415Z,-1.18
2023-02-06T07:01:15.836Z,-1.18
2023-02-06T07:03:45.400Z,-1.18
2023-02-06T07:06:14.144Z,-1.18
2023-02-06T07:08:43.503Z,-1.18
2023-02-06T07:11:14.551Z,-1.17
2023-02-06T07:13:43.465Z,-1.16
2023-02-06T07:16:14.265Z,-1.14
2023-02-06T07:18:43.042Z,-1.12
2023-02-06T07:21:13.772Z,-1.10
2023-02-06T07:23:42.050Z,-1.08
2023-02-06T07:26:10.328Z,-1.04
2023-02-06T07:28:38.948Z,-1.00
2023-02-06T07:31:09.098Z,-0.96
2023-02-06T07:33:38.752Z,-0.91
2023-02-06T07:36:11.318Z,-0.87
2023-02-06T07:38:39.644Z,-0.83
2023-02-06T07:41:08.521Z,-0.79
2023-02-06T07:43:36.846Z,-0.75
2023-02-06T07:46:06.672Z,-0.70
2023-02-06T07:48:34.969Z,-0.64
2023-02-06T07:51:09.340Z,-0.63
2023-02-06T07:53:38.664Z,-0.54
2023-02-06T07:56:13.225Z,-0.51
2023-02-06T07:58:41.900Z,-0.46
2023-02-06T08:01:10.744Z,-0.45
2023-02-06T08:03:39.311Z,-0.40
2023-02-06T08:06:14.680Z,-0.37
2023-02-06T08:08:44.177Z,-0.34
2023-02-06T08:11:15.624Z,-0.30
2023-02-06T08:13:44.678Z,-0.27
2023-02-06T08:16:16.251Z,-0.22
2023-02-06T08:18:44.781Z,-0.17
2023-02-06T08:21:17.024Z,-0.09
2023-02-06T08:23:45.565Z,-0.05
2023-02-06T08:26:16.914Z,0.05
2023-02-06T08:28:47.883Z,0.13
2023-02-06T08:31:19.379Z,0.23
2023-02-06T08:33:48.444Z,0.30
2023-02-06T08:36:20.090Z,0.38
2023-02-06T08:38:48.984Z,0.47
2023-02-06T08:41:20.493Z,0.57
2023-02-06T08:43:49.953Z,0.69
2023-02-06T08:46:20.188Z,0.83
2023-02-06T08:48:48.569Z,0.98
2023-02-06T08:51:18.211Z,1.15
2023-02-06T08:53:46.459Z,1.30
2023-02-06T08:56:15.272Z,1.45
2023-02-06T08:58:43.522Z,1.58
2023-02-06T09:01:14.642Z,1.73
2023-02-06T09:03:43.626Z,1.88
2023-02-06T09:06:12.858Z,2.03
2023-02-06T09:08:43.499Z,2.20
2023-02-06T09:11:13.692Z,2.33
2023-02-06T09:13:42.200Z,2.47
2023-02-06T09:16:11.648Z,2.61
2023-02-06T09:18:40.279Z,2.74
2023-02-06T09:21:11.570Z,2.91
2023-02-06T09:23:40.285Z,3.04
2023-02-06T09:26:10.091Z,3.19
2023-02-06T09:28:38.429Z,3.36
2023-02-06T09:31:08.204Z,3.56
2023-02-06T09:33:38.143Z,3.68
2023-02-06T09:36:09.322Z,3.82
2023-02-06T09:38:40.467Z,3.99
2023-02-06T09:41:18.550Z,4.14
2023-02-06T09:43:52.373Z,4.30
2023-02-06T09:46:27.421Z,4.42
2023-02-06T09:48:57.538Z,4.55
2023-02-06T09:51:35.992Z,4.70
2023-02-06T09:54:15.375Z,4.84
2023-02-06T09:56:52.030Z,5.01
2023-02-06T09:59:30.835Z,5.20
2023-02-06T10:02:30.499Z,5.43
2023-02-06T10:05:10.482Z,5.62
2023-02-06T10:08:06.732Z,5.72
2023-02-06T10:10:40.860Z,5.86
2023-02-06T10:13:17.644Z,5.94
2023-02-06T10:15:50.228Z,6.00
2023-02-06T10:18:29.034Z,6.04
2023-02-06T10:21:05.975Z,6.07
2023-02-06T10:23:40.281Z,6.05
2023-02-06T10:26:17.240Z,6.04
2023-02-06T10:28:51.337Z,6.01
2023-02-06T10:31:47.604Z,5.97
2023-02-06T10:35:08.183Z,5.91
2023-02-06T10:38:04.947Z,5.83
2023-02-06T10:40:43.808Z,5.77
2023-02-06T10:43:25.295Z,5.71
2023-02-06T10:46:07.122Z,5.65
2023-02-06T10:48:42.328Z,5.58
2023-02-06T10:51:21.293Z,5.53
2023-02-06T10:53:52.501Z,5.47
2023-02-06T10:56:27.314Z,5.39
2023-02-06T10:59:00.300Z,5.36
2023-02-06T11:01:35.925Z,5.32
2023-02-06T11:04:12.787Z,5.29
2023-02-06T11:06:43.131Z,5.25
2023-02-06T11:09:11.878Z,5.22
2023-02-06T11:11:43.530Z,5.18
2023-02-06T11:14:18.139Z,5.11
2023-02-06T11:16:48.351Z,5.08
2023-02-06T11:19:25.644Z,5.00
2023-02-06T11:21:57.298Z,4.99
2023-02-06T11:24:26.421Z,4.94
2023-02-06T11:26:58.678Z,4.94
2023-02-06T11:29:29.353Z,4.94
2023-02-06T11:32:01.841Z,4.95
2023-02-06T11:34:33.625Z,4.95
2023-02-06T11:37:04.567Z,4.94
2023-02-06T11:39:35.503Z,4.93
2023-02-06T11:42:07.442Z,4.93
2023-02-06T11:44:42.647Z,4.93
2023-02-06T11:47:31.431Z,4.93
2023-02-06T11:50:24.580Z,4.96
2023-02-06T11:53:00.655Z,4.98
2023-02-06T11:55:32.080Z,4.98
2023-02-06T11:58:18.434Z,5.02
2023-02-06T12:01:00.819Z,5.01
2023-02-06T12:03:35.691Z,5.03
2023-02-06T12:06:12.367Z,5.04
2023-02-06T12:08:53.109Z,5.05
2023-02-06T12:11:27.309Z,5.05
2023-02-06T12:14:00.995Z,5.06
2023-02-06T12:16:30.800Z,5.05
2023-02-06T12:19:02.204Z,5.08
2023-02-06T12:21:46.225Z,5.04
2023-02-06T12:24:35.103Z,5.03
2023-02-06T12:27:15.978Z,5.02
2023-02-06T12:29:54.633Z,5.00
2023-02-06T12:32:31.738Z,4.99
2023-02-06T12:35:14.901Z,4.98
2023-02-06T12:37:50.383Z,4.99
2023-02-06T12:40:32.324Z,5.00
2023-02-06T12:43:05.159Z,5.00
2023-02-06T12:45:43.148Z,5.02
2023-02-06T12:48:19.185Z,5.04
2023-02-06T12:50:58.041Z,5.06
2023-02-06T12:53:32.082Z,5.08
2023-02-06T12:56:05.738Z,5.10
2023-02-06T12:58:50.009Z,5.12
2023-02-06T13:01:37.011Z,5.17
2023-02-06T13:04:08.283Z,5.19
2023-02-06T13:06:49.307Z,5.17
2023-02-06T13:09:25.321Z,5.21
2023-02-06T13:11:53.871Z,5.27
2023-02-06T13:14:26.371Z,5.30
2023-02-06T13:16:58.689Z,5.34
2023-02-06T13:19:52.443Z,5.33
2023-02-06T13:22:43.412Z,5.33
2023-02-06T13:25:51.147Z,5.31
2023-02-06T13:28:58.346Z,5.30
2023-02-06T13:31:33.761Z,5.31
2023-02-06T13:34:08.091Z,5.30
2023-02-06T13:36:52.895Z,5.29
2023-02-06T13:39:34.672Z,5.29
2023-02-06T13:42:37.506Z,5.29
2023-02-06T13:45:08.185Z,5.29
2023-02-06T13:48:38.576Z,5.31
2023-02-06T13:51:32.836Z,5.28
2023-02-06T13:55:03.267Z,5.30
2023-02-06T13:57:54.374Z,5.27
2023-02-06T14:00:26.579Z,5.28
2023-02-06T14:02:58.646Z,5.31
2023-02-06T14:05:35.757Z,5.35
2023-02-06T14:08:16.824Z,5.37
2023-02-06T14:11:29.731Z,5.37
2023-02-06T14:14:28.433Z,5.37
2023-02-06T14:17:09.960Z,5.38
2023-02-06T14:19:46.659Z,5.37
2023-02-06T14:22:35.220Z,5.36
2023-02-06T14:25:26.952Z,5.38
2023-02-06T14:28:12.560Z,5.35
2023-02-06T14:30:49.211Z,5.38
2023-02-06T14:33:47.598Z,5.38
2023-02-06T14:36:40.394Z,5.38
2023-02-06T14:39:41.064Z,5.36
2023-02-06T14:42:17.750Z,5.32
2023-02-06T14:44:53.088Z,5.32
2023-02-06T14:47:27.926Z,5.32
2023-02-06T14:49:58.026Z,5.32
2023-02-06T14:52:33.173Z,5.30
2023-02-06T14:55:01.823Z,5.30
2023-02-06T14:57:32.583Z,5.30
2023-02-06T15:00:08.970Z,5.29
2023-02-06T15:02:38.697Z,5.28
2023-02-06T15:05:07.962Z,5.25
2023-02-06T15:07:39.610Z,5.24
2023-02-06T15:10:12.105Z,5.22
2023-02-06T15:12:40.827Z,5.21
2023-02-06T15:15:22.525Z,5.18
2023-02-06T15:17:59.545Z,5.16
2023-02-06T15:20:38.106Z,5.13
2023-02-06T15:23:17.622Z,5.12
2023-02-06T15:26:05.163Z,5.09
2023-02-06T15:28:36.225Z,5.08
2023-02-06T15:31:17.112Z,5.05
2023-02-06T15:33:49.053Z,5.01
2023-02-06T15:36:24.263Z,5.00
2023-02-06T15:38:53.327Z,5.00
2023-02-06T15:41:22.164Z,5.00
2023-02-06T15:43:52.155Z,4.97
2023-02-06T15:46:22.047Z,4.97
2023-02-06T15:48:57.382Z,4.90
2023-02-06T15:51:28.303Z,4.90
2023-02-06T15:54:09.643Z,4.86
2023-02-06T15:56:42.570Z,4.82
2023-02-06T15:59:20.483Z,4.80
2023-02-06T16:01:50.976Z,4.77
2023-02-06T16:04:24.225Z,4.73
2023-02-06T16:07:05.616Z,4.69
2023-02-06T16:09:44.011Z,4.68
2023-02-06T16:12:12.556Z,4.65
2023-02-06T16:14:54.591Z,4.66
2023-02-06T16:17:29.418Z,4.66
2023-02-06T16:20:02.353Z,4.64
2023-02-06T16:22:33.944Z,4.66
2023-02-06T16:25:22.579Z,4.63
2023-02-06T16:27:52.276Z,4.64
2023-02-06T16:30:29.370Z,4.62
2023-02-06T16:33:01.868Z,4.61
2023-02-06T16:35:30.430Z,4.60
2023-02-06T16:37:58.801Z,4.58
2023-02-06T16:40:27.343Z,4.56
2023-02-06T16:42:56.252Z,4.54
2023-02-06T16:45:27.845Z,4.52
2023-02-06T16:47:58.410Z,4.47
2023-02-06T16:50:26.849Z,4.45
2023-02-06T16:52:59.309Z,4.37
2023-02-06T16:55:28.909Z,4.34
2023-02-06T16:58:01.132Z,4.31
2023-02-06T17:00:32.601Z,4.27
2023-02-06T17:03:02.405Z,4.24
2023-02-06T17:05:31.641Z,4.22
2023-02-06T17:08:01.714Z,4.20
2023-02-06T17:10:30.152Z,4.18
2023-02-06T17:12:58.784Z,4.18
2023-02-06T17:15:27.336Z,4.15
2023-02-06T17:17:55.792Z,4.16
2023-02-06T17:20:31.841Z,4.17
2023-02-06T17:23:00.604Z,4.15
2023-02-06T17:25:29.371Z,4.17
2023-02-06T17:27:57.905Z,4.17
2023-02-06T17:30:27.307Z,4.17
2023-02-06T17:32:56.336Z,4.14
2023-02-06T17:35:26.502Z,4.12
2023-02-06T17:37:55.080Z,4.12
2023-02-06T17:40:27.102Z,4.10
2023-02-06T17:42:56.165Z,4.11
2023-02-06T17:45:24.672Z,4.11
2023-02-06T17:47:53.490Z,4.08
2023-02-06T17:50:24.103Z,4.06
2023-02-06T17:52:55.759Z,4.03
2023-02-06T17:55:25.220Z,4.00
2023-02-06T17:57:53.991Z,3.97
2023-02-06T18:00:25.174Z,3.92
2023-02-06T18:02:55.138Z,3.91
2023-02-06T18:05:24.723Z,3.90
2023-02-06T18:07:54.601Z,3.87
2023-02-06T18:10:26.336Z,3.84
2023-02-06T18:12:54.917Z,3.81
2023-02-06T18:15:23.357Z,3.78
2023-02-06T18:17:51.670Z,3.72
2023-02-06T18:20:20.157Z,3.68
2023-02-06T18:22:48.398Z,3.65
2023-02-06T18:25:18.048Z,3.62
2023-02-06T18:27:46.603Z,3.58
2023-02-06T18:30:17.213Z,3.54
2023-02-06T18:32:46.085Z,3.51
2023-02-06T18:35:16.416Z,3.48
2023-02-06T18:37:44.803Z,3.46
2023-02-06T18:40:13.745Z,3.40
2023-02-06T18:42:55.510Z,3.38
2023-02-06T18:45:25.952Z,3.34
2023-02-06T18:47:55.552Z,3.30
2023-02-06T18:50:24.114Z,3.28
2023-02-06T18:52:52.588Z,3.26
2023-02-06T18:55:21.448Z,3.21
2023-02-06T18:57:51.618Z,3.17
2023-02-06T19:00:23.817Z,3.12
2023-02-06T19:02:52.295Z,3.08
2023-02-06T19:05:21.896Z,3.05
2023-02-06T19:07:51.539Z,3.03
2023-02-06T19:10:21.928Z,3.02
2023-02-06T19:12:51.709Z,3.00
2023-02-06T19:15:20.513Z,2.99
2023-02-06T19:17:49.543Z,2.97
2023-02-06T19:20:18.017Z,2.95
2023-02-06T19:22:46.364Z,2.94
2023-02-06T19:25:14.894Z,2.93
2023-02-06T19:27:43.760Z,2.92
2023-02-06T19:30:14.615Z,2.88
2023-02-06T19:32:43.480Z,2.86
2023-02-06T19:35:13.043Z,2.82
2023-02-06T19:37:41.691Z,2.79
2023-02-06T19:40:11.264Z,2.76
2023-02-06T19:42:41.241Z,2.73
2023-02-06T19:45:09.860Z,2.70
2023-02-06T19:47:39.936Z,2.68
2023-02-06T19:50:09.258Z,2.64
2023-02-06T19:52:37.537Z,2.62
2023-02-06T19:55:06.453Z,2.59
2023-02-06T19:57:34.816Z,2.57
2023-02-06T20:00:04.620Z,2.54
2023-02-06T20:02:32.893Z,2.51
2023-02-06T20:05:02.907Z,2.46
2023-02-06T20:07:31.921Z,2.41
2023-02-06T20:10:00.277Z,2.35
2023-02-06T20:12:29.198Z,2.30
2023-02-06T20:14:57.656Z,2.28
2023-02-06T20:17:26.966Z,2.24
2023-02-06T20:19:55.411Z,2.22
2023-02-06T20:22:25.067Z,2.19
2023-02-06T20:24:53.454Z,2.18
2023-02-06T20:27:21.783Z,2.17
2023-02-06T20:29:50.153Z,2.14
2023-02-06T20:32:19.503Z,2.13
2023-02-06T20:34:48.477Z,2.09
2023-02-06T20:37:17.709Z,2.07
2023-02-06T20:39:47.460Z,2.05
2023-02-06T20:42:16.168Z,2.03
2023-02-06T20:44:44.512Z,2.01
2023-02-06T20:47:12.872Z,1.98
2023-02-06T20:49:41.982Z,1.96
2023-02-06T20:52:10.346Z,1.92
2023-02-06T20:54:38.808Z,1.89
2023-02-06T20:57:08.614Z,1.84
2023-02-06T20:59:37.085Z,1.81
2023-02-06T21:02:05.581Z,1.76
2023-02-06T21:04:34.551Z,1.73
2023-02-06T21:07:03.135Z,1.71
2023-02-06T21:09:31.596Z,1.67
2023-02-06T21:12:00.117Z,1.65
2023-02-06T21:14:30.522Z,1.62
2023-02-06T21:16:58.935Z,1.61
2023-02-06T21:19:29.215Z,1.58
2023-02-06T21:21:57.741Z,1.57
2023-02-06T21:24:26.087Z,1.52
2023-02-06T21:26:54.792Z,1.50
2023-02-06T21:29:23.953Z,1.47
2023-02-06T21:32:07.199Z,1.44
2023-02-06T21:34:40.836Z,1.42
2023-02-06T21:37:09.916Z,1.39
2023-02-06T21:39:40.524Z,1.38
2023-02-06T21:42:09.220Z,1.34
2023-02-06T21:44:38.927Z,1.34
2023-02-06T21:47:09.987Z,1.32
2023-02-06T21:49:38.455Z,1.31
2023-02-06T21:52:06.723Z,1.28
2023-02-06T21:54:34.990Z,1.26
2023-02-06T21:57:03.305Z,1.24
2023-02-06T21:59:33.920Z,1.21
2023-02-06T22:02:02.328Z,1.17
2023-02-06T22:04:32.071Z,1.15
2023-02-06T22:07:00.306Z,1.12
2023-02-06T22:09:28.574Z,1.10
2023-02-06T22:11:56.962Z,1.07
2023-02-06T22:14:25.549Z,1.02
2023-02-06T22:16:53.882Z,0.99
2023-02-06T22:19:22.198Z,0.98
2023-02-06T22:21:51.870Z,0.95
2023-02-06T22:24:20.599Z,0.93
2023-02-06T22:26:48.870Z,0.89
2023-02-06T22:29:18.948Z,0.86
2023-02-06T22:31:48.450Z,0.84
2023-02-06T22:34:19.224Z,0.83
2023-02-06T22:36:48.193Z,0.80
2023-02-06T22:39:18.908Z,0.76
2023-02-06T22:41:47.794Z,0.74
2023-02-06T22:44:17.293Z,0.72
2023-02-06T22:46:49.853Z,0.70
2023-02-06T22:49:19.250Z,0.69
2023-02-06T22:51:47.645Z,0.64
2023-02-06T22:54:17.343Z,0.62
2023-02-06T22:56:45.801Z,0.61
2023-02-06T22:59:17.902Z,0.60
2023-02-06T23:01:48.478Z,0.57
2023-02-06T23:04:18.596Z,0.53
2023-02-06T23:06:48.418Z,0.54
2023-02-06T23:09:20.753Z,0.52
2023-02-06T23:11:49.607Z,0.51
2023-02-06T23:14:19.253Z,0.50
2023-02-06T23:16:48.424Z,0.48
2023-02-06T23:19:18.486Z,0.47
2023-02-06T23:21:49.598Z,0.45
2023-02-06T23:24:20.576Z,0.44
2023-02-06T23:26:51.338Z,0.43
2023-02-06T23:29:21.032Z,0.40
2023-02-06T23:31:50.153Z,0.37
2023-02-06T23:34:19.882Z,0.36
2023-02-06T23:36:48.853Z,0.32
2023-02-06T23:39:18.543Z,0.30
2023-02-06T23:41:46.824Z,0.28
2023-02-06T23:44:15.292Z,0.27
2023-02-06T23:46:43.585Z,0.24
2023-02-06T23:49:12.156Z,0.22
2023-02-06T23:51:40.485Z,0.21
2023-02-06T23:54:10.422Z,0.19
2023-02-06T23:56:40.187Z,0.15
2023-02-06T23:59:08.607Z,0.14
